createdAt,value
2023-05-16T00:01:47.409Z,14.00
2023-05-16T00:04:17.743Z,14.00
2023-05-16T00:06:45.882Z,14.00
2023-05-16T00:09:13.983Z,13.90
2023-05-16T00:11:42.174Z,13.90
2023-05-16T00:14:10.309Z,14.00
2023-05-16T00:16:38.419Z,13.90
2023-05-16T00:19:06.676Z,13.90
2023-05-16T00:21:36.892Z,13.80
2023-05-16T00:24:06.250Z,13.80
2023-05-16T00:26:34.390Z,13.80
2023-05-16T00:29:02.527Z,13.70
2023-05-16T00:31:30.776Z,13.70
2023-05-16T00:33:58.906Z,13.70
2023-05-16T00:36:27.382Z,13.70
2023-05-16T00:38:56.991Z,13.70
2023-05-16T00:41:26.213Z,13.70
2023-05-16T00:43:54.506Z,13.60
2023-05-16T00:46:22.692Z,13.60
2023-05-16T00:48:50.993Z,13.60
2023-05-16T00:51:19.476Z,13.60
2023-05-16T00:53:47.653Z,13.60
2023-05-16T00:56:18.767Z,13.70
2023-05-16T00:58:47.204Z,13.60
2023-05-16T01:01:16.602Z,13.60
2023-05-16T01:03:46.069Z,13.50
2023-05-16T01:06:14.475Z,13.50
2023-05-16T01:08:42.763Z,13.40
2023-05-16T01:11:26.268Z,13.40
2023-05-16T01:13:59.438Z,13.30
2023-05-16T01:16:35.544Z,13.40
2023-05-16T01:19:12.441Z,13.40
2023-05-16T01:21:51.246Z,13.40
2023-05-16T01:24:28.099Z,13.40
2023-05-16T01:27:00.157Z,13.40
2023-05-16T01:29:28.704Z,13.40
2023-05-16T01:31:58.397Z,13.40
2023-05-16T01:34:26.907Z,13.40
2023-05-16T01:37:06.023Z,13.40
2023-05-16T01:39:42.077Z,13.30
2023-05-16T01:42:15.475Z,13.30
2023-05-16T01:44:49.069Z,13.20
2023-05-16T01:47:18.709Z,13.20
2023-05-16T01:49:52.608Z,13.20
2023-05-16T01:52:27.168Z,13.20
2023-05-16T01:54:58.983Z,13.20
2023-05-16T01:57:30.299Z,13.20
2023-05-16T01:59:59.830Z,13.20
2023-05-16T02:02:27.963Z,13.20
2023-05-16T02:04:56.102Z,13.20
2023-05-16T02:07:24.567Z,13.20
2023-05-16T02:09:52.684Z,13.20
2023-05-16T02:12:20.788Z,13.20
2023-05-16T02:14:50.260Z,13.20
2023-05-16T02:17:18.310Z,13.20
2023-05-16T02:19:46.551Z,13.20
2023-05-16T02:22:14.594Z,13.20
2023-05-16T02:24:42.661Z,13.20
2023-05-16T02:27:10.866Z,13.30
2023-05-16T02:29:38.977Z,13.30
2023-05-16T02:32:09.182Z,13.30
2023-05-16T02:34:37.266Z,13.30
2023-05-16T02:37:05.938Z,13.30
2023-05-16T02:39:34.011Z,13.40
2023-05-16T02:42:02.085Z,13.40
2023-05-16T02:44:30.129Z,13.40
2023-05-16T02:46:58.185Z,13.50
2023-05-16T02:49:27.638Z,13.50
2023-05-16T02:51:55.675Z,13.50
2023-05-16T02:54:23.790Z,13.60
2023-05-16T02:56:51.846Z,13.60
2023-05-16T02:59:20.479Z,13.70
2023-05-16T03:01:48.556Z,13.80
2023-05-16T03:04:16.759Z,13.90
2023-05-16T03:06:46.740Z,13.90
2023-05-16T03:09:14.854Z,14.00
2023-05-16T03:11:42.933Z,14.00
2023-05-16T03:14:10.995Z,14.00
2023-05-16T03:16:40.141Z,14.00
2023-05-16T03:19:08.508Z,14.00
2023-05-16T03:21:36.667Z,13.90
2023-05-16T03:24:06.598Z,13.90
2023-05-16T03:26:34.769Z,13.90
2023-05-16T03:29:02.972Z,13.90
2023-05-16T03:31:33.063Z,13.90
2023-05-16T03:34:01.372Z,14.00
2023-05-16T03:36:29.551Z,14.00
2023-05-16T03:38:57.650Z,14.00
2023-05-16T03:41:27.252Z,14.00
2023-05-16T03:43:55.404Z,14.00
2023-05-16T03:46:23.808Z,14.10
2023-05-16T03:48:52.002Z,14.10
2023-05-16T03:51:20.119Z,14.10
2023-05-16T03:53:48.228Z,14.20
2023-05-16T03:56:16.318Z,14.20
2023-05-16T03:58:45.942Z,14.20
2023-05-16T04:01:14.037Z,14.30
2023-05-16T04:03:42.116Z,14.30
2023-05-16T04:06:10.221Z,14.30
2023-05-16T04:08:39.758Z,14.40
2023-05-16T04:11:07.935Z,14.40
2023-05-16T04:13:36.042Z,14.50
2023-05-16T04:16:06.036Z,14.50
2023-05-16T04:18:34.175Z,14.50
2023-05-16T04:21:04.187Z,14.60
2023-05-16T04:23:32.332Z,14.60
2023-05-16T04:26:01.843Z,14.60
2023-05-16T04:28:30.331Z,14.70
2023-05-16T04:30:58.404Z,14.70
2023-05-16T04:33:27.908Z,14.70
2023-05-16T04:35:58.493Z,14.70
2023-05-16T04:38:26.640Z,14.70
2023-05-16T04:40:54.757Z,14.70
2023-05-16T04:43:22.878Z,14.70
2023-05-16T04:45:50.937Z,14.70
2023-05-16T04:48:19.060Z,14.70
2023-05-16T04:50:48.517Z,14.70
2023-05-16T04:53:16.615Z,14.70
2023-05-16T04:55:44.659Z,14.70
2023-05-16T04:58:12.727Z,14.70
2023-05-16T05:00:40.822Z,14.60
2023-05-16T05:03:09.082Z,14.60
2023-05-16T05:05:37.462Z,14.60
2023-05-16T05:08:07.502Z,14.50
2023-05-16T05:10:35.602Z,14.50
2023-05-16T05:13:03.948Z,14.50
2023-05-16T05:15:32.123Z,14.50
2023-05-16T05:18:00.401Z,14.60
2023-05-16T05:20:28.708Z,14.60
2023-05-16T05:22:56.831Z,14.70
2023-05-16T05:25:27.773Z,14.70
2023-05-16T05:27:56.172Z,14.70
2023-05-16T05:30:24.298Z,14.70
2023-05-16T05:32:53.384Z,14.70
2023-05-16T05:35:22.331Z,14.70
2023-05-16T05:37:50.392Z,14.70
2023-05-16T05:40:18.473Z,14.70
2023-05-16T05:42:47.946Z,14.70
2023-05-16T05:45:16.853Z,14.70
2023-05-16T05:47:46.077Z,14.70
2023-05-16T05:50:15.873Z,14.70
2023-05-16T05:52:44.109Z,14.70
2023-05-16T05:55:12.505Z,14.60
2023-05-16T05:57:40.813Z,14.60
2023-05-16T06:00:11.703Z,14.60
2023-05-16T06:02:40.448Z,14.60
2023-05-16T06:05:09.614Z,14.70
2023-05-16T06:07:37.768Z,14.70
2023-05-16T06:10:08.567Z,14.80
2023-05-16T06:12:36.919Z,14.80
2023-05-16T06:15:05.595Z,14.90
2023-05-16T06:17:35.114Z,14.90
2023-05-16T06:20:03.388Z,15.00
2023-05-16T06:22:31.472Z,15.00
2023-05-16T06:24:59.560Z,15.00
2023-05-16T06:27:27.597Z,15.10
2023-05-16T06:29:56.056Z,15.20
2023-05-16T06:32:24.303Z,15.20
2023-05-16T06:34:53.884Z,15.30
2023-05-16T06:37:23.516Z,15.30
2023-05-16T06:39:51.640Z,15.40
2023-05-16T06:42:20.489Z,15.50
2023-05-16T06:44:48.808Z,15.40
2023-05-16T06:47:17.394Z,15.40
2023-05-16T06:49:45.706Z,15.40
2023-05-16T06:52:15.234Z,15.30
2023-05-16T06:54:43.593Z,15.30
2023-05-16T06:57:11.716Z,15.30
2023-05-16T06:59:39.910Z,15.40
2023-05-16T07:02:08.363Z,15.30
2023-05-16T07:04:38.060Z,15.30
2023-05-16T07:07:07.792Z,15.30
2023-05-16T07:09:37.374Z,15.30
2023-05-16T07:12:06.344Z,15.20
2023-05-16T07:14:34.492Z,15.20
2023-05-16T07:17:03.903Z,15.20
2023-05-16T07:19:32.134Z,15.20
2023-05-16T07:22:00.493Z,15.20
2023-05-16T07:24:28.684Z,15.20
2023-05-16T07:26:58.456Z,15.20
2023-05-16T07:29:26.637Z,15.20
2023-05-16T07:31:54.965Z,15.20
2023-05-16T07:34:23.241Z,15.20
2023-05-16T07:36:51.413Z,15.20
2023-05-16T07:39:19.515Z,15.30
2023-05-16T07:41:49.622Z,15.30
2023-05-16T07:44:19.130Z,15.30
2023-05-16T07:46:47.291Z,15.40
2023-05-16T07:49:15.444Z,15.40
2023-05-16T07:51:43.618Z,15.50
2023-05-16T07:54:11.809Z,15.50
2023-05-16T07:56:39.932Z,15.60
2023-05-16T07:59:08.334Z,15.70
2023-05-16T08:01:38.420Z,15.80
2023-05-16T08:04:07.188Z,15.80
2023-05-16T08:06:35.634Z,15.80
2023-05-16T08:09:04.058Z,15.80
2023-05-16T08:11:32.456Z,15.80
2023-05-16T08:14:00.597Z,15.90
2023-05-16T08:16:28.750Z,15.90
2023-05-16T08:18:58.350Z,16.00
2023-05-16T08:21:26.876Z,16.10
2023-05-16T08:23:55.885Z,16.20
2023-05-16T08:26:23.968Z,16.30
2023-05-16T08:28:52.076Z,16.40
2023-05-16T08:31:21.282Z,16.50
2023-05-16T08:33:49.545Z,16.60
2023-05-16T08:36:20.070Z,16.60
2023-05-16T08:38:50.714Z,16.60
2023-05-16T08:41:18.979Z,16.70
2023-05-16T08:43:47.163Z,16.70
2023-05-16T08:46:15.412Z,16.80
2023-05-16T08:48:47.327Z,16.70
2023-05-16T08:51:19.928Z,16.80
2023-05-16T08:53:55.431Z,16.90
2023-05-16T08:56:24.800Z,16.90
2023-05-16T08:58:55.343Z,16.90
2023-05-16T09:01:23.906Z,17.00
2023-05-16T09:03:53.041Z,17.00
2023-05-16T09:06:21.582Z,17.00
2023-05-16T09:08:51.134Z,17.00
2023-05-16T09:11:20.110Z,16.90
2023-05-16T09:13:48.340Z,16.90
2023-05-16T09:16:18.711Z,16.80
2023-05-16T09:18:48.595Z,16.80
2023-05-16T09:21:18.007Z,16.70
2023-05-16T09:23:46.535Z,16.70
2023-05-16T09:26:16.535Z,16.60
2023-05-16T09:28:45.094Z,16.60
2023-05-16T09:31:24.943Z,16.60
2023-05-16T09:33:53.223Z,16.60
2023-05-16T09:36:21.404Z,16.60
2023-05-16T09:38:51.173Z,16.60
2023-05-16T09:41:22.516Z,16.70
2023-05-16T09:43:50.670Z,16.70
2023-05-16T09:46:19.924Z,16.70
2023-05-16T09:48:49.140Z,16.80
2023-05-16T09:51:17.415Z,16.90
2023-05-16T09:53:45.617Z,17.10
2023-05-16T09:56:15.240Z,17.30
2023-05-16T09:58:46.552Z,17.60
2023-05-16T10:01:14.803Z,17.80
2023-05-16T10:03:44.408Z,18.10
2023-05-16T10:06:14.456Z,18.50
2023-05-16T10:08:44.237Z,18.80
2023-05-16T10:11:12.904Z,19.10
2023-05-16T10:13:41.884Z,19.20
2023-05-16T10:16:13.499Z,19.40
2023-05-16T10:18:43.745Z,19.50
2023-05-16T10:21:15.686Z,19.60
2023-05-16T10:23:44.789Z,19.80
2023-05-16T10:26:14.849Z,20.00
2023-05-16T10:28:43.660Z,20.20
2023-05-16T10:31:14.692Z,20.50
2023-05-16T10:33:43.480Z,20.70
2023-05-16T10:36:12.940Z,21.00
2023-05-16T10:38:42.310Z,21.20
2023-05-16T10:41:11.203Z,21.30
2023-05-16T10:43:39.713Z,21.30
2023-05-16T10:46:10.724Z,21.20
2023-05-16T10:48:42.283Z,21.20
2023-05-16T10:51:35.572Z,21.20
2023-05-16T10:54:07.892Z,21.30
2023-05-16T10:56:36.377Z,21.30
2023-05-16T10:59:05.941Z,21.40
2023-05-16T11:01:35.635Z,21.50
2023-05-16T11:04:11.082Z,21.60
2023-05-16T11:06:47.656Z,21.70
2023-05-16T11:09:28.696Z,21.70
2023-05-16T11:11:59.685Z,21.70
2023-05-16T11:14:32.130Z,21.80
2023-05-16T11:17:07.686Z,21.80
2023-05-16T11:19:42.729Z,21.90
2023-05-16T11:22:29.730Z,22.00
2023-05-16T11:25:00.856Z,22.20
2023-05-16T11:27:30.909Z,22.20
2023-05-16T11:30:03.796Z,22.20
2023-05-16T11:32:34.963Z,22.10
2023-05-16T11:35:05.183Z,22.00
2023-05-16T11:37:33.456Z,21.80
2023-05-16T11:40:02.301Z,21.70
2023-05-16T11:42:35.215Z,21.60
2023-05-16T11:45:08.144Z,21.60
2023-05-16T11:47:38.323Z,21.70
2023-05-16T11:50:10.007Z,21.80
2023-05-16T11:52:39.895Z,22.00
2023-05-16T11:55:11.491Z,22.10
2023-05-16T11:57:39.956Z,22.20
2023-05-16T12:00:16.299Z,22.40
2023-05-16T12:02:45.076Z,22.60
2023-05-16T12:05:17.151Z,22.70
2023-05-16T12:07:46.187Z,22.70
2023-05-16T12:10:16.012Z,22.70
2023-05-16T12:12:46.083Z,22.70
2023-05-16T12:15:15.502Z,22.70
2023-05-16T12:17:44.176Z,22.70
2023-05-16T12:20:16.732Z,22.90
2023-05-16T12:22:46.128Z,23.00
2023-05-16T12:25:23.970Z,23.00
2023-05-16T12:27:53.756Z,22.90
2023-05-16T12:30:24.612Z,22.90
2023-05-16T12:32:58.534Z,22.90
2023-05-16T12:35:33.232Z,23.10
2023-05-16T12:38:01.650Z,23.30
2023-05-16T12:40:30.624Z,23.50
2023-05-16T12:42:59.332Z,23.70
2023-05-16T12:45:29.018Z,23.80
2023-05-16T12:47:57.192Z,23.90
2023-05-16T12:50:29.758Z,23.90
2023-05-16T12:53:01.929Z,24.00
2023-05-16T12:55:30.101Z,24.10
2023-05-16T12:57:58.883Z,24.30
2023-05-16T13:00:27.380Z,24.50
2023-05-16T13:02:55.841Z,24.80
2023-05-16T13:05:24.522Z,24.80
2023-05-16T13:07:54.482Z,24.90
2023-05-16T13:10:22.952Z,24.90
2023-05-16T13:12:51.087Z,24.80
2023-05-16T13:15:19.424Z,24.80
2023-05-16T13:17:48.541Z,24.60
2023-05-16T13:20:17.374Z,24.50
2023-05-16T13:22:46.711Z,24.40
2023-05-16T13:25:16.638Z,24.20
2023-05-16T13:27:44.755Z,24.10
2023-05-16T13:30:14.361Z,24.00
2023-05-16T13:32:42.520Z,23.80
2023-05-16T13:35:10.755Z,23.80
2023-05-16T13:37:39.696Z,23.80
2023-05-16T13:40:10.495Z,24.00
2023-05-16T13:42:40.522Z,24.20
2023-05-16T13:45:09.953Z,24.50
2023-05-16T13:47:38.150Z,24.70
2023-05-16T13:50:10.111Z,24.90
2023-05-16T13:52:38.826Z,25.00
2023-05-16T13:55:08.030Z,25.10
2023-05-16T13:57:36.363Z,25.20
2023-05-16T14:00:35.433Z,25.10
2023-05-16T14:03:00.565Z,25.00
2023-05-16T14:05:28.939Z,24.90
2023-05-16T14:07:57.339Z,24.70
2023-05-16T14:10:26.751Z,24.60
2023-05-16T14:12:55.130Z,24.50
2023-05-16T14:15:24.601Z,24.50
2023-05-16T14:17:52.805Z,24.40
2023-05-16T14:20:21.047Z,24.40
2023-05-16T14:22:49.244Z,24.50
2023-05-16T14:25:17.560Z,24.50
2023-05-16T14:27:47.132Z,24.50
2023-05-16T14:30:15.383Z,24.60
2023-05-16T14:32:44.917Z,24.60
2023-05-16T14:35:13.070Z,24.60
2023-05-16T14:37:41.457Z,24.60
2023-05-16T14:40:10.374Z,24.60
2023-05-16T14:42:38.577Z,24.60
2023-05-16T14:45:07.722Z,24.50
2023-05-16T14:47:36.333Z,24.50
2023-05-16T14:50:07.133Z,24.60
2023-05-16T14:52:36.058Z,24.60
2023-05-16T14:55:04.248Z,24.70
2023-05-16T14:57:32.768Z,24.70
2023-05-16T15:00:00.931Z,24.80
2023-05-16T15:02:29.087Z,24.80
2023-05-16T15:04:57.374Z,24.70
2023-05-16T15:07:27.266Z,24.70
2023-05-16T15:09:55.787Z,24.60
2023-05-16T15:12:23.892Z,24.50
2023-05-16T15:14:52.048Z,24.40
2023-05-16T15:17:20.315Z,24.20
2023-05-16T15:19:49.139Z,24.10
2023-05-16T15:22:17.304Z,23.80
2023-05-16T15:24:47.000Z,23.60
2023-05-16T15:27:15.151Z,23.40
2023-05-16T15:29:43.236Z,23.20
2023-05-16T15:32:13.718Z,23.10
2023-05-16T15:34:42.029Z,23.00
2023-05-16T15:37:10.294Z,22.90
2023-05-16T15:39:38.482Z,22.90
2023-05-16T15:42:11.201Z,22.70
2023-05-16T15:44:40.552Z,22.60
2023-05-16T15:47:08.856Z,22.40
2023-05-16T15:49:37.024Z,22.20
2023-05-16T15:52:06.128Z,22.20
2023-05-16T15:54:34.364Z,22.10
2023-05-16T15:57:02.505Z,22.00
2023-05-16T15:59:31.977Z,22.00
2023-05-16T16:02:04.112Z,21.90
2023-05-16T16:04:32.550Z,21.90
2023-05-16T16:07:00.874Z,21.80
2023-05-16T16:09:29.033Z,21.70
2023-05-16T16:11:57.377Z,21.70
2023-05-16T16:14:25.968Z,21.70
2023-05-16T16:16:55.471Z,21.80
2023-05-16T16:19:23.972Z,21.90
2023-05-16T16:21:52.187Z,22.00
2023-05-16T16:24:21.220Z,22.00
2023-05-16T16:26:49.326Z,22.00
2023-05-16T16:29:17.525Z,22.00
2023-05-16T16:31:45.738Z,22.00
2023-05-16T16:34:15.340Z,22.00
2023-05-16T16:36:43.453Z,22.00
2023-05-16T16:39:11.572Z,22.00
2023-05-16T16:41:39.803Z,21.90
2023-05-16T16:44:07.936Z,21.80
2023-05-16T16:46:36.276Z,21.70
2023-05-16T16:49:04.479Z,21.60
2023-05-16T16:51:36.001Z,21.60
2023-05-16T16:54:04.167Z,21.60
2023-05-16T16:56:32.325Z,21.60
2023-05-16T16:59:00.418Z,21.60
2023-05-16T17:01:31.869Z,21.70
2023-05-16T17:04:00.746Z,21.60
2023-05-16T17:06:30.111Z,21.60
2023-05-16T17:09:03.387Z,21.60
2023-05-16T17:11:35.894Z,21.50
2023-05-16T17:14:06.135Z,21.50
2023-05-16T17:16:34.545Z,21.40
2023-05-16T17:19:02.725Z,21.30
2023-05-16T17:21:31.435Z,21.30
2023-05-16T17:24:01.024Z,21.20
2023-05-16T17:26:30.194Z,21.10
2023-05-16T17:28:58.717Z,20.90
2023-05-16T17:31:26.892Z,20.80
2023-05-16T17:33:54.985Z,20.70
2023-05-16T17:36:23.078Z,20.60
2023-05-16T17:38:51.172Z,20.50
2023-05-16T17:41:20.841Z,20.40
2023-05-16T17:43:49.065Z,20.30
2023-05-16T17:46:17.181Z,20.30
2023-05-16T17:48:45.426Z,20.10
2023-05-16T17:51:13.535Z,20.00
2023-05-16T17:53:41.666Z,20.00
2023-05-16T17:56:10.268Z,19.90
2023-05-16T17:58:39.749Z,19.90
2023-05-16T18:01:09.282Z,19.80
2023-05-16T18:03:38.610Z,19.80
2023-05-16T18:06:07.198Z,19.80
2023-05-16T18:08:35.429Z,19.70
2023-05-16T18:11:03.577Z,19.60
2023-05-16T18:13:32.846Z,19.50
2023-05-16T18:16:02.336Z,19.50
2023-05-16T18:18:30.661Z,19.40
2023-05-16T18:20:59.596Z,19.30
2023-05-16T18:23:27.731Z,19.10
2023-05-16T18:25:55.809Z,18.90
2023-05-16T18:28:24.108Z,18.70
2023-05-16T18:30:52.397Z,18.50
2023-05-16T18:33:22.087Z,18.30
2023-05-16T18:35:50.207Z,18.20
2023-05-16T18:38:31.307Z,18.10
2023-05-16T18:41:01.038Z,18.00
2023-05-16T18:43:29.214Z,17.90
2023-05-16T18:45:57.793Z,17.70
2023-05-16T18:48:27.396Z,17.70
2023-05-16T18:50:55.936Z,17.60
2023-05-16T18:53:24.265Z,17.50
2023-05-16T18:55:52.439Z,17.50
2023-05-16T18:58:20.631Z,17.40
2023-05-16T19:00:49.272Z,17.30
2023-05-16T19:03:17.541Z,17.30
2023-05-16T19:05:47.530Z,17.10
2023-05-16T19:08:15.859Z,17.10
2023-05-16T19:10:44.048Z,17.00
2023-05-16T19:13:12.226Z,16.90
2023-05-16T19:15:40.520Z,16.80
2023-05-16T19:18:08.794Z,16.70
2023-05-16T19:20:37.191Z,16.60
2023-05-16T19:23:06.737Z,16.50
2023-05-16T19:25:34.985Z,16.30
2023-05-16T19:28:03.395Z,16.30
2023-05-16T19:30:31.566Z,16.10
2023-05-16T19:32:59.704Z,16.00
2023-05-16T19:35:29.009Z,15.90
2023-05-16T19:37:57.426Z,15.80
2023-05-16T19:40:26.913Z,15.70
2023-05-16T19:42:54.998Z,15.70
2023-05-16T19:45:23.294Z,15.60
2023-05-16T19:47:51.691Z,15.50
2023-05-16T19:50:20.478Z,15.50
2023-05-16T19:52:48.667Z,15.50
2023-05-16T19:55:16.827Z,15.50
2023-05-16T19:57:46.719Z,15.50
2023-05-16T20:00:15.994Z,15.50
2023-05-16T20:02:44.204Z,15.50
2023-05-16T20:05:12.720Z,15.50
2023-05-16T20:07:40.908Z,15.50
2023-05-16T20:10:10.300Z,15.50
2023-05-16T20:12:38.836Z,15.50
2023-05-16T20:15:10.957Z,15.50
2023-05-16T20:17:39.792Z,15.50
2023-05-16T20:20:09.746Z,15.60
2023-05-16T20:22:38.953Z,15.60
2023-05-16T20:25:09.166Z,15.60
2023-05-16T20:27:37.827Z,15.60
2023-05-16T20:30:08.695Z,15.60
2023-05-16T20:32:37.119Z,15.50
2023-05-16T20:35:09.114Z,15.50
2023-05-16T20:37:37.336Z,15.50
2023-05-16T20:40:07.163Z,15.50
2023-05-16T20:42:35.383Z,15.40
2023-05-16T20:45:03.589Z,15.40
2023-05-16T20:47:33.121Z,15.40
2023-05-16T20:50:01.311Z,15.40
2023-05-16T20:52:29.480Z,15.30
2023-05-16T20:54:58.338Z,15.30
2023-05-16T20:57:26.453Z,15.20
2023-05-16T20:59:54.588Z,15.20
2023-05-16T21:02:22.759Z,15.20
2023-05-16T21:04:52.297Z,15.20
2023-05-16T21:07:21.512Z,15.10
2023-05-16T21:09:49.645Z,15.10
2023-05-16T21:12:17.781Z,15.10
2023-05-16T21:14:46.677Z,15.00
2023-05-16T21:17:14.873Z,15.00
2023-05-16T21:19:43.079Z,14.90
2023-05-16T21:22:12.659Z,14.90
2023-05-16T21:24:41.695Z,14.90
2023-05-16T21:27:09.992Z,14.80
2023-05-16T21:29:38.152Z,14.80
2023-05-16T21:32:06.776Z,14.80
2023-05-16T21:34:34.943Z,14.70
2023-05-16T21:37:03.045Z,14.70
2023-05-16T21:39:32.651Z,14.70
2023-05-16T21:42:01.346Z,14.60
2023-05-16T21:44:29.443Z,14.50
2023-05-16T21:46:57.570Z,14.50
2023-05-16T21:49:25.767Z,14.50
2023-05-16T21:51:54.021Z,14.40
2023-05-16T21:54:22.165Z,14.40
2023-05-16T21:56:51.638Z,14.30
2023-05-16T21:59:19.755Z,14.30
2023-05-16T22:01:47.894Z,14.30
2023-05-16T22:04:16.105Z,14.20
2023-05-16T22:06:44.288Z,14.20
2023-05-16T22:09:12.866Z,14.20
2023-05-16T22:11:41.278Z,14.10
2023-05-16T22:14:10.814Z,14.00
2023-05-16T22:16:39.135Z,14.10
2023-05-16T22:19:08.957Z,14.00
2023-05-16T22:21:37.431Z,14.00
2023-05-16T22:24:06.062Z,14.00
2023-05-16T22:26:34.160Z,13.90
2023-05-16T22:29:02.238Z,13.80
2023-05-16T22:31:31.719Z,13.70
2023-05-16T22:33:59.877Z,13.60
2023-05-16T22:36:30.466Z,13.40
2023-05-16T22:38:58.562Z,13.40
2023-05-16T22:41:29.046Z,13.30
2023-05-16T22:43:57.478Z,13.30
2023-05-16T22:46:25.749Z,13.20
2023-05-16T22:48:55.302Z,13.20
2023-05-16T22:51:23.413Z,13.10
2023-05-16T22:53:51.521Z,13.10
2023-05-16T22:56:19.613Z,13.10
2023-05-16T22:58:47.677Z,13.00
2023-05-16T23:01:15.932Z,13.00
2023-05-16T23:03:44.125Z,12.90
2023-05-16T23:06:13.657Z,12.80
2023-05-16T23:08:42.742Z,12.70
2023-05-16T23:11:10.815Z,12.70
2023-05-16T23:13:38.965Z,12.60
2023-05-16T23:16:07.422Z,12.60
2023-05-16T23:18:35.757Z,12.50
2023-05-16T23:21:03.957Z,12.50
2023-05-16T23:23:33.793Z,12.50
2023-05-16T23:26:01.959Z,12.50
2023-05-16T23:28:30.075Z,12.40
2023-05-16T23:30:58.176Z,12.40
2023-05-16T23:33:26.323Z,12.30
2023-05-16T23:35:54.446Z,12.30
2023-05-16T23:38:23.009Z,12.30
2023-05-16T23:40:52.720Z,12.20
2023-05-16T23:43:21.107Z,12.20
2023-05-16T23:45:49.213Z,12.20
2023-05-16T23:48:17.351Z,12.20
2023-05-16T23:50:45.540Z,12.20
2023-05-16T23:53:13.653Z,12.10
2023-05-16T23:55:41.751Z,12.00
2023-05-16T23:58:11.227Z,12.00
